createdAt,value
2023-04-15T00:01:08.183Z,0.50
2023-04-15T00:03:35.598Z,0.57
2023-04-15T00:06:02.528Z,0.55
2023-04-15T00:08:30.167Z,0.50
2023-04-15T00:10:56.891Z,0.50
2023-04-15T00:13:23.752Z,0.60
2023-04-15T00:15:50.337Z,0.60
2023-04-15T00:18:16.986Z,0.57
2023-04-15T00:20:43.623Z,0.57
2023-04-15T00:23:10.235Z,0.50
2023-04-15T00:25:36.844Z,0.50
2023-04-15T00:28:04.211Z,0.60
2023-04-15T00:30:31.666Z,0.50
2023-04-15T00:32:58.380Z,0.60
2023-04-15T00:35:25.544Z,0.60
2023-04-15T00:37:52.123Z,0.57
2023-04-15T00:40:21.794Z,0.60
2023-04-15T00:42:48.430Z,0.60
2023-04-15T00:45:15.686Z,0.60
2023-04-15T00:47:43.950Z,0.60
2023-04-15T00:50:12.602Z,0.60
2023-04-15T00:52:40.121Z,0.55
2023-04-15T00:55:07.582Z,0.50
2023-04-15T00:57:35.290Z,0.60
2023-04-15T01:00:02.661Z,0.60
2023-04-15T01:02:29.413Z,0.60
2023-04-15T01:04:56.824Z,0.50
2023-04-15T01:07:23.523Z,0.60
2023-04-15T01:09:50.270Z,0.60
2023-04-15T01:12:17.870Z,0.60
2023-04-15T01:14:44.700Z,0.60
2023-04-15T01:17:11.353Z,0.60
2023-04-15T01:19:38.393Z,0.60
2023-04-15T01:22:05.669Z,0.60
2023-04-15T01:24:36.018Z,0.55
2023-04-15T01:27:03.500Z,0.60
2023-04-15T01:29:32.658Z,0.60
2023-04-15T01:31:59.464Z,0.60
2023-04-15T01:34:26.390Z,0.60
2023-04-15T01:36:53.040Z,0.60
2023-04-15T01:39:19.676Z,0.50
2023-04-15T01:41:46.239Z,0.60
2023-04-15T01:44:12.869Z,0.57
2023-04-15T01:46:39.449Z,0.50
2023-04-15T01:49:06.530Z,0.50
2023-04-15T01:51:33.252Z,0.55
2023-04-15T01:54:00.047Z,0.55
2023-04-15T01:56:26.844Z,0.50
2023-04-15T01:58:53.735Z,0.50
2023-04-15T02:01:20.909Z,0.60
2023-04-15T02:03:48.111Z,0.52
2023-04-15T02:06:15.383Z,0.50
2023-04-15T02:08:42.071Z,0.50
2023-04-15T02:11:09.412Z,0.57
2023-04-15T02:13:36.370Z,0.60
2023-04-15T02:16:03.513Z,0.60
2023-04-15T02:18:30.623Z,0.50
2023-04-15T02:20:58.840Z,0.55
2023-04-15T02:23:25.844Z,0.50
2023-04-15T02:25:53.458Z,0.50
2023-04-15T02:28:21.196Z,0.57
2023-04-15T02:30:52.762Z,0.60
2023-04-15T02:33:20.330Z,0.60
2023-04-15T02:35:47.482Z,0.60
2023-04-15T02:38:18.045Z,0.50
2023-04-15T02:40:44.688Z,0.50
2023-04-15T02:43:11.657Z,0.50
2023-04-15T02:45:38.249Z,0.50
2023-04-15T02:48:06.698Z,0.50
2023-04-15T02:50:33.507Z,0.50
2023-04-15T02:53:01.669Z,0.60
2023-04-15T02:55:28.994Z,0.50
2023-04-15T02:57:55.882Z,0.50
2023-04-15T03:00:25.297Z,0.57
2023-04-15T03:02:56.798Z,0.50
2023-04-15T03:05:26.279Z,0.52
2023-04-15T03:07:53.407Z,0.50
2023-04-15T03:10:20.316Z,0.50
2023-04-15T03:12:47.206Z,0.50
2023-04-15T03:15:14.087Z,0.50
2023-04-15T03:17:40.836Z,0.60
2023-04-15T03:20:07.767Z,0.50
2023-04-15T03:22:34.467Z,0.52
2023-04-15T03:25:01.146Z,0.50
2023-04-15T03:27:27.846Z,0.50
2023-04-15T03:29:54.422Z,0.50
2023-04-15T03:32:21.130Z,0.50
2023-04-15T03:34:47.818Z,0.50
2023-04-15T03:37:14.454Z,0.60
2023-04-15T03:39:41.800Z,0.60
2023-04-15T03:42:08.422Z,0.50
2023-04-15T03:44:35.050Z,0.60
2023-04-15T03:47:01.907Z,0.50
2023-04-15T03:49:28.641Z,0.57
2023-04-15T03:51:55.568Z,0.50
2023-04-15T03:54:22.195Z,0.50
2023-04-15T03:56:48.761Z,0.50
2023-04-15T03:59:15.531Z,0.57
2023-04-15T04:01:42.147Z,0.50
2023-04-15T04:04:09.308Z,0.50
2023-04-15T04:06:36.020Z,0.60
2023-04-15T04:09:03.098Z,0.50
2023-04-15T04:11:29.893Z,0.60
2023-04-15T04:13:56.606Z,0.50
2023-04-15T04:16:23.315Z,0.50
2023-04-15T04:18:50.090Z,0.60
2023-04-15T04:21:17.091Z,0.50
2023-04-15T04:23:43.759Z,0.60
2023-04-15T04:26:10.562Z,0.55
2023-04-15T04:28:37.317Z,0.60
2023-04-15T04:31:03.928Z,0.50
2023-04-15T04:33:30.638Z,0.52
2023-04-15T04:35:57.264Z,0.50
2023-04-15T04:38:23.878Z,0.50
2023-04-15T04:40:50.783Z,0.50
2023-04-15T04:43:17.436Z,0.50
2023-04-15T04:45:44.173Z,0.60
2023-04-15T04:48:10.927Z,0.60
2023-04-15T04:50:37.536Z,0.50
2023-04-15T04:53:04.132Z,0.50
2023-04-15T04:55:31.991Z,0.50
2023-04-15T04:57:58.591Z,0.60
2023-04-15T05:00:25.455Z,0.50
2023-04-15T05:02:52.313Z,0.50
2023-04-15T05:05:19.162Z,0.57
2023-04-15T05:07:46.105Z,0.60
2023-04-15T05:10:13.056Z,0.50
2023-04-15T05:12:39.684Z,0.60
2023-04-15T05:15:07.022Z,0.50
2023-04-15T05:17:35.316Z,0.50
2023-04-15T05:20:03.076Z,0.60
2023-04-15T05:22:29.805Z,0.50
2023-04-15T05:24:56.452Z,0.50
2023-04-15T05:27:24.102Z,0.50
2023-04-15T05:29:50.684Z,0.60
2023-04-15T05:32:17.533Z,0.50
2023-04-15T05:34:44.144Z,0.60
2023-04-15T05:37:10.995Z,0.50
2023-04-15T05:39:37.607Z,0.60
2023-04-15T05:42:06.007Z,0.60
2023-04-15T05:44:32.938Z,0.60
2023-04-15T05:46:59.659Z,0.60
2023-04-15T05:49:26.296Z,0.60
2023-04-15T05:51:52.973Z,0.60
2023-04-15T05:54:20.350Z,0.63
2023-04-15T05:56:47.095Z,0.60
2023-04-15T05:59:13.772Z,0.60
2023-04-15T06:01:40.700Z,0.70
2023-04-15T06:04:07.387Z,0.70
2023-04-15T06:06:34.681Z,0.63
2023-04-15T06:09:01.520Z,0.70
2023-04-15T06:11:28.379Z,0.60
2023-04-15T06:13:54.952Z,0.70
2023-04-15T06:16:21.990Z,0.70
2023-04-15T06:18:48.877Z,0.60
2023-04-15T06:21:16.014Z,0.70
2023-04-15T06:23:42.888Z,0.60
2023-04-15T06:26:09.488Z,0.60
2023-04-15T06:28:36.206Z,0.70
2023-04-15T06:31:03.537Z,0.63
2023-04-15T06:33:30.151Z,0.70
2023-04-15T06:35:56.928Z,0.70
2023-04-15T06:38:23.533Z,0.70
2023-04-15T06:40:50.524Z,0.60
2023-04-15T06:43:17.122Z,0.70
2023-04-15T06:45:43.825Z,0.63
2023-04-15T06:48:10.397Z,0.75
2023-04-15T06:50:36.967Z,0.70
2023-04-15T06:53:03.531Z,0.70
2023-04-15T06:55:31.635Z,0.70
2023-04-15T06:57:58.285Z,0.70
2023-04-15T07:00:25.529Z,0.70
2023-04-15T07:02:52.834Z,0.70
2023-04-15T07:05:20.167Z,0.70
2023-04-15T07:07:46.882Z,1.70
2023-04-15T07:10:15.011Z,1.58
2023-04-15T07:12:42.997Z,1.63
2023-04-15T07:15:10.066Z,1.60
2023-04-15T07:17:37.187Z,1.60
2023-04-15T07:20:05.031Z,1.60
2023-04-15T07:22:31.723Z,1.50
2023-04-15T07:24:58.394Z,1.60
2023-04-15T07:27:25.041Z,1.83
2023-04-15T07:29:52.319Z,1.80
2023-04-15T07:32:19.595Z,1.88
2023-04-15T07:34:46.417Z,1.77
2023-04-15T07:37:13.669Z,1.90
2023-04-15T07:39:40.387Z,2.10
2023-04-15T07:42:07.019Z,2.00
2023-04-15T07:44:33.627Z,1.85
2023-04-15T07:47:00.566Z,1.67
2023-04-15T07:49:27.176Z,1.80
2023-04-15T07:51:53.801Z,1.92
2023-04-15T07:54:20.882Z,1.90
2023-04-15T07:56:47.436Z,2.00
2023-04-15T07:59:17.811Z,1.90
2023-04-15T08:01:45.111Z,2.30
2023-04-15T08:04:11.990Z,2.00
2023-04-15T08:06:40.094Z,1.85
2023-04-15T08:09:08.247Z,2.10
2023-04-15T08:11:34.986Z,1.95
2023-04-15T08:14:01.864Z,2.10
2023-04-15T08:16:28.708Z,2.08
2023-04-15T08:18:56.533Z,2.03
2023-04-15T08:21:23.981Z,2.00
2023-04-15T08:23:52.232Z,1.80
2023-04-15T08:26:21.159Z,2.30
2023-04-15T08:28:48.928Z,2.00
2023-04-15T08:31:18.094Z,1.85
2023-04-15T08:33:44.852Z,2.30
2023-04-15T08:36:11.618Z,2.22
2023-04-15T08:38:38.217Z,2.15
2023-04-15T08:41:23.407Z,1.73
2023-04-15T08:43:57.964Z,1.83
2023-04-15T08:46:24.924Z,1.60
2023-04-15T08:48:52.501Z,1.52
2023-04-15T08:51:19.939Z,1.52
2023-04-15T08:53:47.551Z,1.38
2023-04-15T08:56:19.103Z,1.50
2023-04-15T08:58:46.826Z,1.40
2023-04-15T09:01:13.682Z,1.52
2023-04-15T09:03:40.941Z,1.27
2023-04-15T09:06:07.710Z,1.27
2023-04-15T09:08:37.202Z,1.30
2023-04-15T09:11:04.181Z,1.40
2023-04-15T09:13:31.639Z,1.35
2023-04-15T09:15:58.723Z,1.40
2023-04-15T09:18:33.506Z,1.30
2023-04-15T09:21:14.890Z,1.30
2023-04-15T09:23:54.359Z,1.30
2023-04-15T09:26:40.424Z,1.30
2023-04-15T09:29:09.512Z,1.40
2023-04-15T09:31:37.650Z,1.50
2023-04-15T09:34:04.721Z,1.58
2023-04-15T09:36:51.833Z,1.77
2023-04-15T09:39:18.516Z,1.75
2023-04-15T09:41:45.245Z,1.95
2023-04-15T09:44:25.374Z,1.80
2023-04-15T09:46:51.996Z,2.10
2023-04-15T09:49:19.551Z,2.10
2023-04-15T09:51:57.645Z,2.03
2023-04-15T09:54:36.572Z,1.98
2023-04-15T09:57:10.485Z,2.08
2023-04-15T09:59:37.398Z,2.10
2023-04-15T10:02:07.733Z,1.95
2023-04-15T10:04:37.479Z,1.90
2023-04-15T10:07:06.284Z,2.00
2023-04-15T10:09:34.886Z,2.05
2023-04-15T10:12:04.253Z,1.80
2023-04-15T10:14:34.629Z,2.10
2023-04-15T10:17:05.824Z,2.05
2023-04-15T10:19:36.621Z,1.80
2023-04-15T10:22:04.127Z,1.90
2023-04-15T10:24:34.315Z,2.10
2023-04-15T10:27:04.171Z,1.75
2023-04-15T10:29:31.405Z,1.92
2023-04-15T10:32:00.023Z,1.88
2023-04-15T10:34:27.636Z,2.00
2023-04-15T10:37:03.709Z,1.95
2023-04-15T10:39:36.795Z,2.25
2023-04-15T10:42:18.211Z,2.03
2023-04-15T10:44:52.464Z,2.13
2023-04-15T10:47:21.596Z,2.00
2023-04-15T10:50:01.087Z,2.08
2023-04-15T10:52:29.455Z,1.98
2023-04-15T10:55:26.378Z,2.03
2023-04-15T10:58:01.087Z,2.15
2023-04-15T11:00:32.673Z,2.17
2023-04-15T11:03:06.332Z,2.20
2023-04-15T11:05:42.031Z,2.10
2023-04-15T11:08:10.057Z,2.50
2023-04-15T11:10:36.705Z,2.15
2023-04-15T11:13:17.465Z,2.50
2023-04-15T11:15:45.699Z,2.13
2023-04-15T11:18:12.609Z,2.35
2023-04-15T11:20:40.961Z,2.08
2023-04-15T11:23:15.275Z,2.70
2023-04-15T11:25:43.510Z,2.25
2023-04-15T11:28:11.533Z,2.50
2023-04-15T11:30:40.092Z,2.47
2023-04-15T11:33:14.752Z,2.55
2023-04-15T11:35:42.588Z,2.55
2023-04-15T11:38:12.001Z,2.20
2023-04-15T11:40:38.895Z,2.63
2023-04-15T11:43:13.709Z,2.20
2023-04-15T11:46:01.073Z,2.40
2023-04-15T11:48:33.775Z,2.50
2023-04-15T11:51:07.869Z,2.37
2023-04-15T11:53:50.861Z,2.67
2023-04-15T11:56:22.586Z,2.63
2023-04-15T11:58:53.311Z,2.30
2023-04-15T12:01:20.151Z,2.50
2023-04-15T12:03:48.397Z,2.92
2023-04-15T12:06:19.206Z,2.95
2023-04-15T12:09:04.748Z,2.83
2023-04-15T12:11:34.121Z,2.95
2023-04-15T12:14:09.648Z,2.92
2023-04-15T12:16:48.437Z,2.60
2023-04-15T12:19:36.095Z,2.50
2023-04-15T12:22:13.934Z,2.20
2023-04-15T12:24:49.568Z,2.20
2023-04-15T12:27:17.090Z,2.20
2023-04-15T12:29:44.005Z,2.33
2023-04-15T12:32:11.696Z,2.50
2023-04-15T12:34:41.064Z,2.50
2023-04-15T12:37:09.915Z,2.05
2023-04-15T12:39:41.556Z,2.00
2023-04-15T12:42:09.239Z,2.10
2023-04-15T12:44:36.718Z,2.17
2023-04-15T12:47:03.871Z,2.22
2023-04-15T12:49:32.659Z,2.70
2023-04-15T12:52:01.353Z,2.30
2023-04-15T12:54:31.805Z,2.10
2023-04-15T12:56:59.742Z,2.05
2023-04-15T12:59:26.755Z,1.92
2023-04-15T13:01:53.935Z,2.00
2023-04-15T13:04:22.026Z,1.95
2023-04-15T13:06:48.937Z,2.20
2023-04-15T13:09:15.846Z,2.47
2023-04-15T13:11:42.600Z,2.08
2023-04-15T13:14:11.699Z,2.22
2023-04-15T13:16:38.925Z,2.20
2023-04-15T13:19:05.710Z,2.17
2023-04-15T13:21:35.753Z,1.77
2023-04-15T13:24:04.054Z,2.10
2023-04-15T13:26:31.708Z,1.88
2023-04-15T13:28:58.556Z,2.00
2023-04-15T13:31:25.661Z,1.85
2023-04-15T13:33:52.331Z,1.88
2023-04-15T13:36:18.988Z,1.90
2023-04-15T13:38:45.793Z,2.00
2023-04-15T13:41:12.428Z,1.90
2023-04-15T13:43:39.007Z,1.83
2023-04-15T13:46:05.861Z,2.05
2023-04-15T13:48:32.455Z,1.88
2023-04-15T13:50:59.027Z,2.10
2023-04-15T13:53:33.907Z,2.17
2023-04-15T13:56:06.284Z,1.92
2023-04-15T13:58:32.919Z,1.83
2023-04-15T14:00:59.557Z,2.47
2023-04-15T14:03:26.358Z,2.20
2023-04-15T14:05:56.138Z,2.42
2023-04-15T14:08:23.380Z,2.60
2023-04-15T14:10:50.075Z,2.53
2023-04-15T14:13:16.770Z,2.40
2023-04-15T14:15:43.352Z,2.28
2023-04-15T14:18:09.916Z,2.60
2023-04-15T14:20:36.476Z,2.22
2023-04-15T14:23:03.082Z,2.20
2023-04-15T14:25:33.677Z,2.03
2023-04-15T14:28:01.694Z,2.40
2023-04-15T14:30:28.392Z,2.13
2023-04-15T14:32:55.139Z,2.60
2023-04-15T14:35:21.856Z,2.53
2023-04-15T14:37:48.527Z,2.25
2023-04-15T14:40:15.397Z,2.58
2023-04-15T14:42:42.022Z,2.50
2023-04-15T14:45:09.317Z,2.15
2023-04-15T14:47:36.010Z,2.13
2023-04-15T14:50:02.861Z,2.28
2023-04-15T14:52:33.165Z,2.20
2023-04-15T14:54:59.762Z,2.20
2023-04-15T14:57:26.290Z,2.10
2023-04-15T14:59:56.718Z,2.20
2023-04-15T15:02:37.553Z,2.17
2023-04-15T15:05:06.638Z,2.20
2023-04-15T15:07:33.456Z,2.33
2023-04-15T15:10:00.308Z,2.00
2023-04-15T15:12:26.934Z,2.00
2023-04-15T15:14:55.717Z,2.30
2023-04-15T15:17:22.310Z,1.95
2023-04-15T15:19:49.023Z,2.00
2023-04-15T15:22:15.693Z,2.13
2023-04-15T15:24:42.403Z,1.98
2023-04-15T15:27:09.000Z,2.08
2023-04-15T15:29:35.789Z,2.20
2023-04-15T15:32:02.604Z,2.03
2023-04-15T15:34:32.172Z,2.03
2023-04-15T15:36:58.845Z,1.90
2023-04-15T15:39:25.617Z,2.00
2023-04-15T15:41:52.449Z,2.30
2023-04-15T15:44:19.010Z,2.15
2023-04-15T15:46:45.724Z,2.00
2023-04-15T15:49:13.884Z,1.85
2023-04-15T15:51:40.597Z,1.80
2023-04-15T15:54:07.275Z,2.10
2023-04-15T15:56:35.110Z,1.80
2023-04-15T15:59:01.706Z,2.00
2023-04-15T16:01:28.448Z,2.03
2023-04-15T16:03:55.450Z,1.80
2023-04-15T16:06:22.209Z,2.22
2023-04-15T16:08:48.994Z,2.10
2023-04-15T16:11:15.713Z,2.10
2023-04-15T16:13:42.311Z,2.20
2023-04-15T16:16:08.965Z,1.80
2023-04-15T16:18:35.653Z,2.05
2023-04-15T16:21:02.426Z,2.25
2023-04-15T16:23:29.021Z,2.03
2023-04-15T16:25:55.889Z,2.00
2023-04-15T16:28:26.990Z,2.00
2023-04-15T16:30:54.703Z,2.10
2023-04-15T16:33:21.388Z,1.90
2023-04-15T16:35:48.116Z,2.00
2023-04-15T16:38:14.720Z,2.10
2023-04-15T16:40:42.691Z,1.90
2023-04-15T16:43:11.318Z,1.92
2023-04-15T16:45:38.256Z,2.13
2023-04-15T16:48:05.196Z,1.90
2023-04-15T16:50:31.958Z,1.90
2023-04-15T16:52:58.536Z,2.10
2023-04-15T16:55:25.397Z,2.08
2023-04-15T16:58:01.485Z,1.73
2023-04-15T17:00:31.822Z,1.85
2023-04-15T17:02:59.343Z,2.00
2023-04-15T17:05:27.655Z,2.20
2023-04-15T17:07:54.585Z,1.63
2023-04-15T17:10:21.259Z,2.10
2023-04-15T17:12:47.883Z,1.85
2023-04-15T17:15:14.456Z,1.83
2023-04-15T17:17:41.114Z,1.70
2023-04-15T17:20:08.061Z,1.63
2023-04-15T17:22:34.779Z,1.65
2023-04-15T17:25:01.459Z,1.70
2023-04-15T17:27:28.993Z,1.60
2023-04-15T17:29:56.212Z,1.65
2023-04-15T17:32:23.720Z,1.65
2023-04-15T17:34:51.315Z,1.50
2023-04-15T17:37:18.603Z,1.70
2023-04-15T17:39:45.449Z,1.63
2023-04-15T17:42:12.461Z,1.50
2023-04-15T17:44:39.173Z,1.60
2023-04-15T17:47:05.833Z,1.40
2023-04-15T17:49:34.224Z,1.70
2023-04-15T17:52:01.325Z,1.58
2023-04-15T17:54:28.071Z,1.52
2023-04-15T17:56:54.812Z,1.50
2023-04-15T17:59:21.584Z,1.60
2023-04-15T18:01:48.336Z,1.70
2023-04-15T18:04:17.148Z,1.60
2023-04-15T18:06:43.838Z,1.42
2023-04-15T18:09:10.485Z,1.50
2023-04-15T18:11:39.052Z,1.60
2023-04-15T18:14:05.993Z,1.50
2023-04-15T18:16:32.778Z,1.48
2023-04-15T18:18:59.633Z,1.55
2023-04-15T18:21:27.149Z,1.60
2023-04-15T18:23:53.748Z,1.60
2023-04-15T18:26:21.641Z,1.55
2023-04-15T18:28:48.310Z,1.70
2023-04-15T18:31:14.920Z,1.33
2023-04-15T18:33:41.553Z,1.60
2023-04-15T18:36:08.226Z,1.40
2023-04-15T18:38:34.806Z,1.30
2023-04-15T18:41:04.080Z,1.50
2023-04-15T18:43:30.812Z,1.48
2023-04-15T18:45:57.469Z,1.65
2023-04-15T18:48:26.124Z,1.27
2023-04-15T18:50:54.121Z,1.30
2023-04-15T18:53:21.518Z,1.40
2023-04-15T18:55:48.343Z,1.50
2023-04-15T18:58:15.188Z,1.33
2023-04-15T19:00:43.792Z,1.35
2023-04-15T19:03:11.739Z,1.40
2023-04-15T19:05:38.611Z,1.40
2023-04-15T19:08:05.604Z,1.40
2023-04-15T19:10:33.878Z,1.27
2023-04-15T19:13:00.504Z,1.30
2023-04-15T19:15:27.106Z,1.40
2023-04-15T19:17:53.716Z,1.20
2023-04-15T19:20:20.443Z,1.30
2023-04-15T19:22:47.494Z,1.40
2023-04-15T19:25:14.303Z,1.20
2023-04-15T19:27:40.856Z,1.30
2023-04-15T19:30:08.351Z,1.38
2023-04-15T19:32:36.053Z,1.30
2023-04-15T19:35:02.891Z,1.40
2023-04-15T19:37:29.482Z,1.40
2023-04-15T19:39:56.331Z,1.20
2023-04-15T19:42:22.976Z,1.30
2023-04-15T19:44:49.663Z,1.30
2023-04-15T19:47:16.606Z,1.30
2023-04-15T19:49:43.482Z,1.55
2023-04-15T19:52:10.095Z,1.20
2023-04-15T19:54:37.002Z,1.20
2023-04-15T19:57:03.665Z,1.20
2023-04-15T19:59:30.331Z,1.20
2023-04-15T20:01:57.329Z,1.10
2023-04-15T20:04:24.048Z,1.20
2023-04-15T20:06:50.820Z,1.20
2023-04-15T20:09:17.556Z,1.40
2023-04-15T20:12:09.546Z,1.38
2023-04-15T20:14:30.999Z,1.23
2023-04-15T20:16:57.592Z,1.20
2023-04-15T20:19:24.193Z,1.10
2023-04-15T20:21:52.496Z,1.15
2023-04-15T20:24:20.421Z,1.30
2023-04-15T20:26:47.423Z,1.10
2023-04-15T20:29:14.181Z,1.20
2023-04-15T20:31:41.250Z,1.05
2023-04-15T20:34:09.962Z,1.20
2023-04-15T20:36:38.032Z,1.15
2023-04-15T20:39:04.743Z,1.20
2023-04-15T20:41:31.499Z,1.10
2023-04-15T20:43:58.088Z,1.00
2023-04-15T20:46:26.617Z,1.10
2023-04-15T20:48:54.163Z,1.20
2023-04-15T20:51:20.810Z,1.10
2023-04-15T20:53:47.381Z,1.10
2023-04-15T20:56:13.967Z,1.10
2023-04-15T20:58:41.264Z,1.00
2023-04-15T21:01:07.978Z,1.17
2023-04-15T21:03:34.958Z,1.10
2023-04-15T21:06:01.687Z,0.98
2023-04-15T21:08:31.937Z,1.00
2023-04-15T21:10:58.617Z,1.10
2023-04-15T21:13:25.285Z,1.10
2023-04-15T21:15:54.150Z,1.13
2023-04-15T21:18:22.000Z,1.10
2023-04-15T21:21:01.941Z,1.08
2023-04-15T21:23:29.886Z,1.10
2023-04-15T21:25:57.372Z,1.02
2023-04-15T21:28:23.936Z,1.10
2023-04-15T21:30:50.786Z,1.00
2023-04-15T21:33:20.270Z,1.10
2023-04-15T21:35:46.889Z,1.17
2023-04-15T21:38:13.721Z,1.10
2023-04-15T21:40:40.850Z,1.00
2023-04-15T21:43:08.020Z,1.05
2023-04-15T21:45:35.445Z,1.05
2023-04-15T21:48:08.017Z,1.10
2023-04-15T21:50:36.843Z,0.98
2023-04-15T21:53:04.484Z,1.10
2023-04-15T21:55:31.037Z,1.10
2023-04-15T21:57:57.565Z,1.10
2023-04-15T22:00:24.290Z,1.17
2023-04-15T22:02:51.576Z,1.10
2023-04-15T22:05:18.353Z,1.10
2023-04-15T22:07:44.930Z,1.10
2023-04-15T22:10:11.828Z,1.00
2023-04-15T22:12:41.879Z,1.10
2023-04-15T22:15:09.022Z,1.00
2023-04-15T22:17:35.711Z,1.10
2023-04-15T22:20:03.262Z,1.00
2023-04-15T22:22:43.433Z,1.02
2023-04-15T22:25:11.409Z,1.00
2023-04-15T22:27:38.044Z,0.90
2023-04-15T22:30:05.189Z,0.95
2023-04-15T22:32:31.838Z,1.00
2023-04-15T22:34:58.489Z,0.90
2023-04-15T22:37:25.175Z,1.02
2023-04-15T22:39:52.013Z,0.90
2023-04-15T22:42:18.584Z,0.90
2023-04-15T22:44:45.191Z,1.00
2023-04-15T22:47:11.782Z,0.90
2023-04-15T22:49:39.481Z,0.80
2023-04-15T22:52:06.135Z,0.80
2023-04-15T22:54:33.795Z,0.90
2023-04-15T22:57:01.089Z,0.80
2023-04-15T22:59:27.723Z,0.88
2023-04-15T23:01:54.687Z,0.80
2023-04-15T23:04:23.365Z,0.80
2023-04-15T23:06:52.639Z,0.80
2023-04-15T23:09:19.232Z,0.90
2023-04-15T23:11:45.809Z,0.80
2023-04-15T23:14:12.392Z,0.80
2023-04-15T23:16:39.002Z,0.82
2023-04-15T23:19:05.707Z,0.88
2023-04-15T23:21:32.413Z,0.77
2023-04-15T23:23:58.982Z,0.70
2023-04-15T23:26:27.290Z,0.90
2023-04-15T23:28:53.944Z,0.70
2023-04-15T23:31:20.577Z,0.80
2023-04-15T23:33:47.167Z,0.63
2023-04-15T23:36:13.834Z,0.70
2023-04-15T23:38:40.527Z,0.80
2023-04-15T23:41:07.066Z,0.80
2023-04-15T23:43:33.663Z,0.80
2023-04-15T23:46:00.314Z,0.70
2023-04-15T23:48:26.971Z,0.80
2023-04-15T23:50:53.546Z,0.90
2023-04-15T23:53:20.212Z,0.70
2023-04-15T23:55:46.799Z,0.80
2023-04-15T23:58:13.404Z,0.80
